createdAt,value
2019-03-20T00:00:01.817Z,10.30
2019-03-20T00:02:31.305Z,9.80
2019-03-20T00:05:00.545Z,10.03
2019-03-20T00:07:29.790Z,9.35
2019-03-20T00:09:59.513Z,9.68
2019-03-20T00:12:28.652Z,8.98
2019-03-20T00:14:58.937Z,9.13
2019-03-20T00:17:28.651Z,8.43
2019-03-20T00:19:58.116Z,9.05
2019-03-20T00:22:28.266Z,8.90
2019-03-20T00:24:57.175Z,8.70
2019-03-20T00:27:26.334Z,9.08
2019-03-20T00:29:55.648Z,9.43
2019-03-20T00:32:24.940Z,8.93
2019-03-20T00:35:00.730Z,8.45
2019-03-20T00:37:23.544Z,8.80
2019-03-20T00:39:52.577Z,9.00
2019-03-20T00:42:21.699Z,8.68
2019-03-20T00:48:21.834Z,8.93
2019-03-20T00:50:51.072Z,8.38
2019-03-20T00:53:20.072Z,8.28
2019-03-20T00:55:49.248Z,8.85
2019-03-20T00:58:18.404Z,9.68
2019-03-20T01:00:47.497Z,9.18
2019-03-20T01:03:16.745Z,9.60
2019-03-20T01:05:46.006Z,9.33
2019-03-20T01:08:15.016Z,9.68
2019-03-20T01:10:44.474Z,9.75
2019-03-20T01:13:13.488Z,9.63
2019-03-20T01:15:42.484Z,9.15
2019-03-20T01:18:11.882Z,9.05
2019-03-20T01:20:40.987Z,8.83
2019-03-20T01:23:10.085Z,8.90
2019-03-20T01:25:39.605Z,9.25
2019-03-20T01:28:08.764Z,9.20
2019-03-20T01:30:38.313Z,8.15
2019-03-20T01:33:08.803Z,8.45
2019-03-20T01:35:38.125Z,9.18
2019-03-20T01:38:07.178Z,9.10
2019-03-20T01:40:36.280Z,9.15
2019-03-20T01:43:05.438Z,9.30
2019-03-20T01:45:34.636Z,8.83
2019-03-20T01:48:03.844Z,8.65
2019-03-20T01:50:32.971Z,9.60
2019-03-20T01:53:02.180Z,9.10
2019-03-20T01:55:31.229Z,8.28
2019-03-20T01:58:00.215Z,9.08
2019-03-20T02:00:29.280Z,8.33
2019-03-20T02:02:58.511Z,8.98
2019-03-20T02:05:35.895Z,9.08
2019-03-20T02:07:56.743Z,8.45
2019-03-20T02:10:26.081Z,9.13
2019-03-20T02:12:55.161Z,9.20
2019-03-20T02:15:23.969Z,9.28
2019-03-20T02:17:52.922Z,8.68
2019-03-20T02:20:22.160Z,9.00
2019-03-20T02:22:51.047Z,8.70
2019-03-20T02:25:20.276Z,8.50
2019-03-20T02:27:49.343Z,8.60
2019-03-20T02:30:18.686Z,8.93
2019-03-20T02:32:47.879Z,9.53
2019-03-20T02:35:17.008Z,9.58
2019-03-20T02:37:46.099Z,9.20
2019-03-20T02:40:15.187Z,9.30
2019-03-20T02:42:44.127Z,9.65
2019-03-20T02:45:13.652Z,8.93
2019-03-20T02:47:42.981Z,9.38
2019-03-20T02:50:12.038Z,9.48
2019-03-20T02:52:41.206Z,9.80
2019-03-20T02:55:10.450Z,10.00
2019-03-20T02:57:39.710Z,9.78
2019-03-20T03:00:10.700Z,9.93
2019-03-20T03:02:39.825Z,10.48
2019-03-20T03:05:09.267Z,11.00
2019-03-20T03:07:38.469Z,10.20
2019-03-20T03:10:08.091Z,10.95
2019-03-20T03:12:37.044Z,10.28
2019-03-20T03:15:06.273Z,10.38
2019-03-20T03:17:35.282Z,10.43
2019-03-20T03:20:04.857Z,11.08
2019-03-20T03:22:33.876Z,10.72
2019-03-20T03:25:03.182Z,11.05
2019-03-20T03:27:32.273Z,12.03
2019-03-20T03:30:01.175Z,11.63
2019-03-20T03:32:30.605Z,11.08
2019-03-20T03:34:59.685Z,11.90
2019-03-20T03:37:28.652Z,11.63
2019-03-20T03:39:58.052Z,12.73
2019-03-20T03:42:27.060Z,11.53
2019-03-20T03:44:56.347Z,12.15
2019-03-20T03:47:25.689Z,12.70
2019-03-20T03:49:54.811Z,12.33
2019-03-20T03:52:23.992Z,12.20
2019-03-20T03:54:53.248Z,12.95
2019-03-20T03:57:22.450Z,12.70
2019-03-20T03:59:51.409Z,12.75
2019-03-20T04:02:20.598Z,13.08
2019-03-20T04:04:49.502Z,13.15
2019-03-20T04:07:18.622Z,13.38
2019-03-20T04:09:47.604Z,12.80
2019-03-20T04:12:16.617Z,13.62
2019-03-20T04:14:45.839Z,12.82
2019-03-20T04:17:22.649Z,13.70
2019-03-20T04:19:51.867Z,13.48
2019-03-20T04:22:20.780Z,14.03
2019-03-20T04:24:49.689Z,13.15
2019-03-20T04:27:19.082Z,14.05
2019-03-20T04:29:48.382Z,13.75
2019-03-20T04:32:17.186Z,15.00
2019-03-20T04:34:46.393Z,14.33
2019-03-20T04:37:15.550Z,15.32
2019-03-20T04:39:44.741Z,14.73
2019-03-20T04:42:13.789Z,14.50
2019-03-20T04:44:42.855Z,15.30
2019-03-20T04:47:11.711Z,14.83
2019-03-20T04:49:40.668Z,15.43
2019-03-20T04:52:09.602Z,14.85
2019-03-20T04:54:38.528Z,14.47
2019-03-20T04:57:07.817Z,15.23
2019-03-20T04:59:36.697Z,14.58
2019-03-20T05:02:05.821Z,15.45
2019-03-20T05:04:34.953Z,16.15
2019-03-20T05:07:03.706Z,14.95
2019-03-20T05:09:32.905Z,15.25
2019-03-20T05:12:02.124Z,15.15
2019-03-20T05:14:31.393Z,15.65
2019-03-20T05:17:00.488Z,16.30
2019-03-20T05:19:29.590Z,16.20
2019-03-20T05:21:58.681Z,15.28
2019-03-20T05:24:27.880Z,16.30
2019-03-20T05:26:56.977Z,16.67
2019-03-20T05:29:25.867Z,16.65
2019-03-20T05:31:54.930Z,17.05
2019-03-20T05:34:24.072Z,17.25
2019-03-20T05:36:53.032Z,17.60
2019-03-20T05:39:22.089Z,16.70
2019-03-20T05:41:51.057Z,16.90
2019-03-20T05:44:20.192Z,38.73
2019-03-20T05:46:49.464Z,38.90
2019-03-20T05:49:18.528Z,20.62
2019-03-20T05:51:47.414Z,17.02
2019-03-20T05:54:16.565Z,19.10
2019-03-20T05:56:45.425Z,16.65
2019-03-20T05:59:14.787Z,17.05
2019-03-20T06:01:43.969Z,16.00
2019-03-20T06:04:13.255Z,16.77
2019-03-20T06:06:42.385Z,18.10
2019-03-20T06:09:11.668Z,17.20
2019-03-20T06:11:40.884Z,17.62
2019-03-20T06:14:09.915Z,16.40
2019-03-20T06:16:39.009Z,21.85
2019-03-20T06:19:08.109Z,18.87
2019-03-20T06:21:37.735Z,18.77
2019-03-20T06:24:06.724Z,17.57
2019-03-20T06:26:35.748Z,17.55
2019-03-20T06:29:04.817Z,17.55
2019-03-20T06:31:33.952Z,18.15
2019-03-20T06:34:03.027Z,18.42
2019-03-20T06:36:31.914Z,17.37
2019-03-20T06:39:01.294Z,18.05
2019-03-20T06:41:30.282Z,18.05
2019-03-20T06:43:59.383Z,18.23
2019-03-20T06:46:28.766Z,18.62
2019-03-20T06:48:57.984Z,17.82
2019-03-20T06:51:26.979Z,17.85
2019-03-20T06:53:56.277Z,17.60
2019-03-20T06:56:25.520Z,16.60
2019-03-20T06:59:04.248Z,18.32
2019-03-20T07:01:33.237Z,17.50
2019-03-20T07:04:17.395Z,19.12
2019-03-20T07:06:58.123Z,18.48
2019-03-20T07:09:39.340Z,18.37
2019-03-20T07:12:08.501Z,16.85
2019-03-20T07:14:37.698Z,17.90
2019-03-20T07:17:07.135Z,16.77
2019-03-20T07:19:36.293Z,17.25
2019-03-20T07:22:06.299Z,18.10
2019-03-20T07:24:35.524Z,16.40
2019-03-20T07:27:04.702Z,18.87
2019-03-20T07:29:33.864Z,19.25
2019-03-20T07:32:03.124Z,19.62
2019-03-20T07:34:32.020Z,19.00
2019-03-20T07:37:07.382Z,17.10
2019-03-20T07:39:36.653Z,18.05
2019-03-20T07:42:05.845Z,17.95
2019-03-20T07:44:34.997Z,18.15
2019-03-20T07:47:04.059Z,17.48
2019-03-20T07:49:33.056Z,16.55
2019-03-20T07:52:02.412Z,18.50
2019-03-20T07:54:31.964Z,16.32
2019-03-20T07:57:01.131Z,16.20
2019-03-20T07:59:30.383Z,17.80
2019-03-20T08:01:59.587Z,16.60
2019-03-20T08:04:28.852Z,16.65
2019-03-20T08:06:58.257Z,17.95
2019-03-20T08:09:27.608Z,16.70
2019-03-20T08:11:56.933Z,16.73
2019-03-20T08:14:26.375Z,15.18
2019-03-20T08:16:55.511Z,16.32
2019-03-20T08:19:24.820Z,16.70
2019-03-20T08:21:54.097Z,17.15
2019-03-20T08:24:23.126Z,16.73
2019-03-20T08:26:52.439Z,16.55
2019-03-20T08:29:21.586Z,16.37
2019-03-20T08:31:50.832Z,17.30
2019-03-20T08:34:19.955Z,16.53
2019-03-20T08:36:49.137Z,16.93
2019-03-20T08:39:18.404Z,15.65
2019-03-20T08:41:47.601Z,16.30
2019-03-20T08:44:16.728Z,15.97
2019-03-20T08:46:45.625Z,15.63
2019-03-20T08:49:14.731Z,17.23
2019-03-20T08:51:43.924Z,17.17
2019-03-20T08:54:13.122Z,16.33
2019-03-20T08:56:42.195Z,15.93
2019-03-20T08:59:11.198Z,16.67
2019-03-20T09:01:40.349Z,16.00
2019-03-20T09:04:09.427Z,16.30
2019-03-20T09:06:38.725Z,16.03
2019-03-20T09:09:09.222Z,16.30
2019-03-20T09:11:38.563Z,16.00
2019-03-20T09:14:07.829Z,16.37
2019-03-20T09:16:37.729Z,16.03
2019-03-20T09:19:06.984Z,17.07
2019-03-20T09:21:36.058Z,16.80
2019-03-20T09:24:04.944Z,16.50
2019-03-20T09:26:34.013Z,15.57
2019-03-20T09:29:03.126Z,16.53
2019-03-20T09:31:32.106Z,16.40
2019-03-20T09:34:01.372Z,16.00
2019-03-20T09:36:30.409Z,17.37
2019-03-20T09:38:59.514Z,15.67
2019-03-20T09:41:28.866Z,15.07
2019-03-20T09:43:57.949Z,14.70
2019-03-20T09:46:27.636Z,14.50
2019-03-20T09:48:56.817Z,14.13
2019-03-20T09:51:25.946Z,14.50
2019-03-20T09:53:55.511Z,14.60
2019-03-20T09:56:24.797Z,14.87
2019-03-20T09:58:53.876Z,14.70
2019-03-20T10:01:23.154Z,14.60
2019-03-20T10:03:52.418Z,15.53
2019-03-20T10:06:21.683Z,14.70
2019-03-20T10:08:54.250Z,13.47
2019-03-20T10:11:20.255Z,13.90
2019-03-20T10:13:49.437Z,14.60
2019-03-20T10:16:18.830Z,13.20
2019-03-20T10:18:47.826Z,14.13
2019-03-20T10:21:17.209Z,12.67
2019-03-20T10:23:46.475Z,12.70
2019-03-20T10:26:15.694Z,12.57
2019-03-20T10:28:44.704Z,13.07
2019-03-20T10:31:14.013Z,12.40
2019-03-20T10:33:43.209Z,12.50
2019-03-20T10:36:12.821Z,12.17
2019-03-20T10:38:41.985Z,11.87
2019-03-20T10:41:11.213Z,11.97
2019-03-20T10:43:40.401Z,13.20
2019-03-20T10:46:09.901Z,12.77
2019-03-20T10:48:38.821Z,11.73
2019-03-20T10:51:08.384Z,12.47
2019-03-20T10:53:37.579Z,12.03
2019-03-20T10:56:06.814Z,12.20
2019-03-20T10:58:35.934Z,11.83
2019-03-20T11:01:05.588Z,11.70
2019-03-20T11:03:35.224Z,11.30
2019-03-20T11:06:04.422Z,11.23
2019-03-20T11:08:33.359Z,12.37
2019-03-20T11:11:02.509Z,13.00
2019-03-20T11:13:31.841Z,11.93
2019-03-20T11:16:00.860Z,12.87
2019-03-20T11:18:30.458Z,12.23
2019-03-20T11:20:59.562Z,12.37
2019-03-20T11:23:28.789Z,12.17
2019-03-20T11:25:59.911Z,11.87
2019-03-20T11:28:27.015Z,12.30
2019-03-20T11:30:56.113Z,12.20
2019-03-20T11:33:25.212Z,12.40
2019-03-20T11:35:54.333Z,12.07
2019-03-20T11:38:23.522Z,11.63
2019-03-20T11:40:52.828Z,10.93
2019-03-20T11:43:22.176Z,11.70
2019-03-20T11:45:51.397Z,11.07
2019-03-20T11:48:20.500Z,12.27
2019-03-20T11:50:49.963Z,9.50
2019-03-20T11:53:18.998Z,9.57
2019-03-20T11:55:48.106Z,9.93
2019-03-20T11:58:17.418Z,10.20
2019-03-20T12:00:46.667Z,9.80
2019-03-20T12:03:15.793Z,9.80
2019-03-20T12:05:45.127Z,8.63
2019-03-20T12:08:14.279Z,8.77
2019-03-20T12:10:43.309Z,8.50
2019-03-20T12:13:12.437Z,9.10
2019-03-20T12:15:41.722Z,10.07
2019-03-20T12:18:10.919Z,9.63
2019-03-20T12:20:40.132Z,9.77
2019-03-20T12:23:09.210Z,10.10
2019-03-20T12:25:39.094Z,9.37
2019-03-20T12:28:08.452Z,10.00
2019-03-20T12:30:37.716Z,9.27
2019-03-20T12:33:07.161Z,9.60
2019-03-20T12:35:36.328Z,9.43
2019-03-20T12:38:14.449Z,9.83
2019-03-20T12:40:34.861Z,8.60
2019-03-20T12:43:04.267Z,9.57
2019-03-20T12:45:36.022Z,9.03
2019-03-20T12:48:05.522Z,8.80
2019-03-20T12:50:34.687Z,8.57
2019-03-20T12:53:03.741Z,8.30
2019-03-20T12:55:33.100Z,9.03
2019-03-20T12:58:02.239Z,9.77
2019-03-20T13:00:31.447Z,9.37
2019-03-20T13:03:00.624Z,9.10
2019-03-20T13:05:29.692Z,9.03
2019-03-20T13:08:05.504Z,8.83
2019-03-20T13:10:28.608Z,9.00
2019-03-20T13:12:57.906Z,9.10
2019-03-20T13:15:27.205Z,9.37
2019-03-20T13:17:56.585Z,9.27
2019-03-20T13:20:25.901Z,9.60
2019-03-20T13:22:57.732Z,9.73
2019-03-20T13:25:26.852Z,9.00
2019-03-20T13:27:56.060Z,10.13
2019-03-20T13:30:27.309Z,9.57
2019-03-20T13:32:56.277Z,10.57
2019-03-20T13:35:25.689Z,9.97
2019-03-20T13:37:55.238Z,11.53
2019-03-20T13:40:24.403Z,10.47
2019-03-20T13:42:53.938Z,9.90
2019-03-20T13:45:23.132Z,8.83
2019-03-20T13:47:52.402Z,10.07
2019-03-20T13:50:21.601Z,10.77
2019-03-20T13:52:50.834Z,10.07
2019-03-20T13:55:19.894Z,9.33
2019-03-20T13:57:48.776Z,9.93
2019-03-20T14:00:19.985Z,10.47
2019-03-20T14:02:49.112Z,10.73
2019-03-20T14:05:19.692Z,9.83
2019-03-20T14:07:54.357Z,10.07
2019-03-20T14:10:25.687Z,10.80
2019-03-20T14:12:53.717Z,10.50
2019-03-20T14:15:23.014Z,10.20
2019-03-20T14:17:53.767Z,9.90
2019-03-20T14:20:23.829Z,9.97
2019-03-20T14:22:53.161Z,10.33
2019-03-20T14:25:22.489Z,9.60
2019-03-20T14:27:51.809Z,10.27
2019-03-20T14:30:22.795Z,10.80
2019-03-20T14:32:52.123Z,10.70
2019-03-20T14:35:21.741Z,11.07
2019-03-20T14:37:51.008Z,10.67
2019-03-20T14:40:22.087Z,10.30
2019-03-20T14:42:54.013Z,10.77
2019-03-20T14:45:23.921Z,9.77
2019-03-20T14:47:53.117Z,10.00
2019-03-20T14:50:23.858Z,10.57
2019-03-20T14:52:53.086Z,10.40
2019-03-20T14:55:22.525Z,11.50
2019-03-20T14:57:51.586Z,11.73
2019-03-20T15:03:01.015Z,11.70
2019-03-20T15:05:30.357Z,10.97
2019-03-20T15:08:00.662Z,11.20
2019-03-20T15:10:30.703Z,13.00
2019-03-20T15:12:59.878Z,11.30
2019-03-20T15:15:35.948Z,11.97
2019-03-20T15:18:05.132Z,12.77
2019-03-20T15:20:34.922Z,11.60
2019-03-20T15:23:03.949Z,12.37
2019-03-20T15:25:33.152Z,13.70
2019-03-20T15:28:02.161Z,12.67
2019-03-20T15:30:31.386Z,11.97
2019-03-20T15:33:00.523Z,12.03
2019-03-20T15:35:29.625Z,11.80
2019-03-20T15:37:58.737Z,12.13
2019-03-20T15:40:27.777Z,11.63
2019-03-20T15:42:56.965Z,12.37
2019-03-20T15:45:25.939Z,12.93
2019-03-20T15:47:55.197Z,12.37
2019-03-20T15:50:24.406Z,12.50
2019-03-20T15:52:53.494Z,12.10
2019-03-20T15:55:25.273Z,11.83
2019-03-20T15:57:55.082Z,11.47
2019-03-20T16:00:24.060Z,12.83
2019-03-20T16:02:54.402Z,12.27
2019-03-20T16:05:23.380Z,12.20
2019-03-20T16:07:52.885Z,13.30
2019-03-20T16:10:22.293Z,12.57
2019-03-20T16:12:52.022Z,13.63
2019-03-20T16:15:21.300Z,15.73
2019-03-20T16:17:51.141Z,17.70
2019-03-20T16:20:20.188Z,19.80
2019-03-20T16:22:49.401Z,17.57
2019-03-20T16:25:18.504Z,19.50
2019-03-20T16:27:47.815Z,18.77
2019-03-20T16:30:18.948Z,16.50
2019-03-20T16:32:47.975Z,23.37
2019-03-20T16:35:17.298Z,14.77
2019-03-20T16:37:57.000Z,21.40
2019-03-20T16:40:33.331Z,18.63
2019-03-20T16:43:03.068Z,17.03
2019-03-20T16:45:32.298Z,20.73
2019-03-20T16:48:01.535Z,30.03
2019-03-20T16:50:30.659Z,19.37
2019-03-20T16:52:59.911Z,16.63
2019-03-20T16:55:28.742Z,16.17
2019-03-20T16:57:58.666Z,15.53
2019-03-20T17:00:28.435Z,15.40
2019-03-20T17:02:57.587Z,15.57
2019-03-20T17:05:26.514Z,15.73
2019-03-20T17:07:55.876Z,15.20
2019-03-20T17:10:28.754Z,14.43
2019-03-20T17:12:57.974Z,15.70
2019-03-20T17:15:27.637Z,15.73
2019-03-20T17:17:56.837Z,17.40
2019-03-20T17:20:26.118Z,18.60
2019-03-20T17:22:55.361Z,17.03
2019-03-20T17:25:24.618Z,18.50
2019-03-20T17:27:53.766Z,15.53
2019-03-20T17:30:25.862Z,24.90
2019-03-20T17:32:55.087Z,19.13
2019-03-20T17:35:24.030Z,315.17
2019-03-20T17:37:53.190Z,999.90
2019-03-20T17:40:22.213Z,887.77
2019-03-20T17:42:51.315Z,999.90
2019-03-20T17:45:20.589Z,999.90
2019-03-20T17:47:50.050Z,999.90
2019-03-20T17:50:20.904Z,999.90
2019-03-20T17:52:50.158Z,999.90
2019-03-20T17:55:19.045Z,999.90
2019-03-20T17:57:48.345Z,999.90
2019-03-20T18:00:20.853Z,35.90
2019-03-20T18:02:49.806Z,20.20
2019-03-20T18:05:18.698Z,32.43
2019-03-20T18:07:48.049Z,21.33
2019-03-20T18:10:17.121Z,31.77
2019-03-20T18:12:46.482Z,50.57
2019-03-20T18:15:15.646Z,31.53
2019-03-20T18:17:44.712Z,20.70
2019-03-20T18:20:14.170Z,22.27
2019-03-20T18:22:43.225Z,23.63
2019-03-20T18:25:12.501Z,21.50
2019-03-20T18:27:41.521Z,21.23
2019-03-20T18:30:15.200Z,28.43
2019-03-20T18:32:44.404Z,29.50
2019-03-20T18:35:13.281Z,31.80
2019-03-20T18:37:42.301Z,28.30
2019-03-20T18:40:12.720Z,25.53
2019-03-20T18:42:41.814Z,24.57
2019-03-20T18:45:11.722Z,24.93
2019-03-20T18:47:40.721Z,26.63
2019-03-20T18:50:09.907Z,32.43
2019-03-20T18:52:38.845Z,40.23
2019-03-20T18:55:08.698Z,110.27
2019-03-20T18:57:37.905Z,30.50
2019-03-20T19:00:09.811Z,27.13
2019-03-20T19:02:38.981Z,25.70
2019-03-20T19:05:10.305Z,24.70
2019-03-20T19:07:39.330Z,24.90
2019-03-20T19:10:09.496Z,25.03
2019-03-20T19:12:44.067Z,25.97
2019-03-20T19:15:14.305Z,28.17
2019-03-20T19:17:43.741Z,28.10
2019-03-20T19:20:12.911Z,30.43
2019-03-20T19:25:53.840Z,27.63
2019-03-20T19:28:23.009Z,29.07
2019-03-20T19:30:52.089Z,30.73
2019-03-20T19:33:21.749Z,30.23
2019-03-20T19:35:51.590Z,30.93
2019-03-20T19:38:34.537Z,30.13
2019-03-20T19:40:57.625Z,28.07
2019-03-20T19:43:26.681Z,29.10
2019-03-20T19:45:55.849Z,28.80
2019-03-20T19:48:25.152Z,29.40
2019-03-20T19:50:54.285Z,30.57
2019-03-20T19:53:23.705Z,31.33
2019-03-20T19:55:53.488Z,31.13
2019-03-20T19:58:22.850Z,30.13
2019-03-20T20:00:52.084Z,30.17
2019-03-20T20:03:21.273Z,31.53
2019-03-20T20:08:28.472Z,29.60
2019-03-20T20:10:57.569Z,28.97
2019-03-20T20:13:26.634Z,28.77
2019-03-20T20:15:55.920Z,30.73
2019-03-20T20:18:24.917Z,32.03
2019-03-20T20:20:54.971Z,45.57
2019-03-20T20:23:37.778Z,43.57
2019-03-20T20:26:07.066Z,47.17
2019-03-20T20:31:24.589Z,35.30
2019-03-20T20:33:53.626Z,24.57
2019-03-20T20:36:22.680Z,22.80
2019-03-20T20:38:51.934Z,20.70
2019-03-20T20:41:21.084Z,20.80
2019-03-20T20:43:50.162Z,20.83
2019-03-20T20:46:19.159Z,19.73
2019-03-20T20:48:48.342Z,21.13
2019-03-20T20:51:17.544Z,19.67
2019-03-20T20:53:47.351Z,20.33
2019-03-20T20:56:16.801Z,20.43
2019-03-20T20:58:46.069Z,21.83
2019-03-20T21:01:15.008Z,20.93
2019-03-20T21:03:44.951Z,21.40
2019-03-20T21:06:14.165Z,21.13
2019-03-20T21:08:43.230Z,21.03
2019-03-20T21:11:13.038Z,20.03
2019-03-20T21:13:42.421Z,20.87
2019-03-20T21:22:55.599Z,22.73
2019-03-20T21:29:13.445Z,22.40
2019-03-20T21:34:42.813Z,21.07
2019-03-20T21:38:22.074Z,20.87
2019-03-20T21:41:46.507Z,20.73
2019-03-20T21:44:28.992Z,21.33
2019-03-20T21:47:08.881Z,20.17
2019-03-20T21:56:01.273Z,22.77
2019-03-20T22:10:52.695Z,21.97
2019-03-20T22:16:14.803Z,21.40
2019-03-20T22:19:00.764Z,19.87
2019-03-20T22:24:36.372Z,21.43
2019-03-20T22:33:25.680Z,20.30
2019-03-20T22:40:55.776Z,20.40
2019-03-20T22:54:40.853Z,20.93
